createdAt,value
2018-11-21T00:00:16.569Z,68.40
2018-11-21T00:02:45.134Z,68.02
2018-11-21T00:05:13.630Z,67.61
2018-11-21T00:07:42.123Z,67.67
2018-11-21T00:10:12.230Z,67.70
2018-11-21T00:12:42.340Z,67.84
2018-11-21T00:15:11.797Z,68.08
2018-11-21T00:17:40.390Z,68.38
2018-11-21T00:20:10.192Z,68.26
2018-11-21T00:22:38.918Z,68.64
2018-11-21T00:25:07.446Z,68.86
2018-11-21T00:27:35.963Z,68.59
2018-11-21T00:30:05.418Z,68.77
2018-11-21T00:32:33.940Z,68.43
2018-11-21T00:35:02.505Z,68.79
2018-11-21T00:37:31.098Z,71.52
2018-11-21T00:39:59.583Z,69.10
2018-11-21T00:42:28.481Z,67.15
2018-11-21T00:44:57.046Z,67.94
2018-11-21T00:47:25.548Z,67.99
2018-11-21T00:49:54.255Z,69.15
2018-11-21T00:52:22.745Z,69.13
2018-11-21T00:54:51.235Z,68.70
2018-11-21T00:57:19.749Z,68.79
2018-11-21T00:59:48.417Z,68.82
2018-11-21T01:02:16.880Z,68.03
2018-11-21T01:04:45.413Z,68.03
2018-11-21T01:07:13.942Z,68.60
2018-11-21T01:09:42.444Z,68.81
2018-11-21T01:12:16.041Z,69.41
2018-11-21T01:14:43.605Z,70.44
2018-11-21T01:19:50.038Z,67.47
2018-11-21T01:22:18.504Z,67.95
2018-11-21T01:24:47.135Z,69.09
2018-11-21T01:27:15.765Z,69.64
2018-11-21T01:29:44.333Z,69.42
2018-11-21T01:32:12.790Z,69.48
2018-11-21T01:34:41.332Z,68.91
2018-11-21T01:37:09.932Z,69.57
2018-11-21T01:39:38.563Z,69.45
2018-11-21T01:42:07.047Z,69.58
2018-11-21T01:44:35.685Z,69.37
2018-11-21T01:47:04.318Z,69.57
2018-11-21T01:49:32.778Z,71.99
2018-11-21T01:52:03.151Z,69.72
2018-11-21T01:54:31.665Z,68.74
2018-11-21T01:57:00.143Z,68.70
2018-11-21T01:59:29.282Z,69.68
2018-11-21T02:01:57.898Z,69.49
2018-11-21T02:04:28.546Z,70.03
2018-11-21T02:06:57.309Z,69.93
2018-11-21T02:09:25.788Z,69.89
2018-11-21T02:11:54.307Z,70.31
2018-11-21T02:14:22.889Z,70.44
2018-11-21T02:16:51.362Z,69.83
2018-11-21T02:19:19.890Z,69.60
2018-11-21T02:21:48.559Z,69.51
2018-11-21T02:24:17.057Z,70.49
2018-11-21T02:26:45.603Z,71.37
2018-11-21T02:29:14.118Z,69.49
2018-11-21T02:31:42.974Z,68.69
2018-11-21T02:34:11.503Z,68.81
2018-11-21T02:36:40.018Z,68.99
2018-11-21T02:39:10.163Z,69.62
2018-11-21T02:41:38.818Z,69.79
2018-11-21T02:44:07.580Z,69.35
2018-11-21T02:46:36.133Z,69.81
2018-11-21T02:49:04.732Z,69.92
2018-11-21T02:51:33.214Z,70.00
2018-11-21T02:54:01.708Z,69.72
2018-11-21T02:57:27.099Z,69.58
2018-11-21T03:00:00.778Z,70.01
2018-11-21T03:02:30.062Z,71.50
2018-11-21T03:04:58.490Z,69.59
2018-11-21T03:07:29.301Z,69.15
2018-11-21T03:09:57.880Z,69.50
2018-11-21T03:12:26.387Z,69.12
2018-11-21T03:14:54.887Z,69.83
2018-11-21T03:17:23.440Z,69.83
2018-11-21T03:19:51.988Z,69.58
2018-11-21T03:22:20.515Z,69.86
2018-11-21T03:24:49.218Z,69.59
2018-11-21T03:27:17.758Z,69.78
2018-11-21T03:29:46.404Z,70.42
2018-11-21T03:32:14.845Z,70.16
2018-11-21T03:34:43.345Z,70.12
2018-11-21T03:37:11.818Z,69.91
2018-11-21T03:39:40.327Z,72.06
2018-11-21T03:42:08.842Z,68.75
2018-11-21T03:44:40.305Z,68.35
2018-11-21T03:47:12.478Z,70.02
2018-11-21T03:49:40.982Z,71.10
2018-11-21T03:52:09.467Z,71.37
2018-11-21T03:54:37.995Z,71.29
2018-11-21T03:57:06.653Z,71.15
2018-11-21T03:59:35.109Z,70.37
2018-11-21T04:02:07.015Z,70.39
2018-11-21T04:04:35.612Z,69.99
2018-11-21T04:07:04.263Z,69.90
2018-11-21T04:09:32.734Z,69.35
2018-11-21T04:12:01.326Z,69.23
2018-11-21T04:14:29.864Z,70.90
2018-11-21T04:17:00.245Z,69.03
2018-11-21T04:19:28.728Z,68.64
2018-11-21T04:21:57.235Z,69.17
2018-11-21T04:24:25.722Z,70.29
2018-11-21T04:26:54.427Z,71.50
2018-11-21T04:29:22.913Z,71.68
2018-11-21T04:31:51.383Z,70.58
2018-11-21T04:34:19.883Z,70.58
2018-11-21T04:36:48.373Z,70.47
2018-11-21T04:39:16.983Z,70.06
2018-11-21T04:41:45.445Z,69.92
2018-11-21T04:44:14.504Z,69.65
2018-11-21T04:46:46.630Z,69.67
2018-11-21T04:49:15.079Z,69.66
2018-11-21T04:51:43.592Z,72.32
2018-11-21T04:54:14.486Z,69.10
2018-11-21T04:56:40.570Z,68.88
2018-11-21T04:59:09.039Z,69.90
2018-11-21T05:01:40.347Z,71.30
2018-11-21T05:04:08.893Z,71.49
2018-11-21T05:06:37.417Z,71.41
2018-11-21T05:09:08.860Z,71.00
2018-11-21T05:11:37.376Z,71.04
2018-11-21T05:14:05.947Z,71.30
2018-11-21T05:16:34.629Z,71.12
2018-11-21T05:19:03.115Z,71.41
2018-11-21T05:21:31.592Z,70.92
2018-11-21T05:24:00.479Z,71.10
2018-11-21T05:26:29.070Z,73.47
2018-11-21T05:29:00.958Z,72.80
2018-11-21T05:31:30.957Z,69.14
2018-11-21T05:33:59.458Z,70.16
2018-11-21T05:36:27.940Z,71.91
2018-11-21T05:38:56.541Z,72.06
2018-11-21T05:41:27.964Z,72.69
2018-11-21T05:43:58.609Z,72.27
2018-11-21T05:46:27.268Z,71.73
2018-11-21T05:48:55.788Z,71.22
2018-11-21T05:51:24.298Z,70.76
2018-11-21T05:53:52.763Z,70.53
2018-11-21T05:56:21.287Z,70.57
2018-11-21T05:58:51.569Z,70.00
2018-11-21T06:01:20.239Z,71.01
2018-11-21T06:03:48.932Z,77.27
2018-11-21T06:06:17.528Z,71.42
2018-11-21T06:08:46.017Z,69.85
2018-11-21T06:11:14.618Z,71.06
2018-11-21T06:13:43.152Z,72.68
2018-11-21T06:16:11.770Z,72.79
2018-11-21T06:18:40.252Z,72.80
2018-11-21T06:21:08.889Z,72.40
2018-11-21T06:23:37.333Z,71.99
2018-11-21T06:26:06.107Z,71.88
2018-11-21T06:28:34.647Z,71.74
2018-11-21T06:31:03.318Z,71.77
2018-11-21T06:33:31.820Z,71.71
2018-11-21T06:36:00.372Z,71.40
2018-11-21T06:38:29.003Z,71.80
2018-11-21T06:40:57.540Z,73.39
2018-11-21T06:43:26.223Z,71.48
2018-11-21T06:45:54.788Z,69.49
2018-11-21T06:48:23.274Z,70.70
2018-11-21T06:50:51.805Z,71.97
2018-11-21T06:53:20.382Z,71.95
2018-11-21T06:55:48.869Z,72.05
2018-11-21T06:58:17.435Z,71.49
2018-11-21T07:00:46.021Z,71.74
2018-11-21T07:03:19.834Z,71.59
2018-11-21T07:05:51.664Z,71.71
2018-11-21T07:08:20.232Z,71.18
2018-11-21T07:10:48.747Z,70.91
2018-11-21T07:13:17.181Z,70.99
2018-11-21T07:15:45.803Z,74.43
2018-11-21T07:18:16.940Z,71.72
2018-11-21T07:20:45.589Z,70.10
2018-11-21T07:23:14.059Z,70.27
2018-11-21T07:25:42.474Z,71.39
2018-11-21T07:28:13.141Z,71.69
2018-11-21T07:30:39.688Z,71.59
2018-11-21T07:33:08.273Z,71.26
2018-11-21T07:35:36.843Z,71.01
2018-11-21T07:38:05.603Z,71.09
2018-11-21T07:40:34.107Z,70.72
2018-11-21T07:43:02.592Z,70.60
2018-11-21T07:45:31.556Z,70.29
2018-11-21T07:48:00.508Z,70.68
2018-11-21T07:50:29.062Z,70.91
2018-11-21T07:52:57.564Z,72.06
2018-11-21T07:55:26.363Z,70.84
2018-11-21T07:57:56.703Z,68.71
2018-11-21T08:01:08.917Z,69.35
2018-11-21T08:03:42.035Z,70.20
2018-11-21T08:06:31.859Z,70.90
2018-11-21T08:09:37.464Z,70.65
2018-11-21T08:12:32.680Z,70.44
2018-11-21T08:15:26.208Z,70.42
2018-11-21T08:18:12.742Z,70.13
2018-11-21T08:20:58.808Z,70.59
2018-11-21T08:23:45.197Z,70.54
2018-11-21T08:26:41.928Z,70.67
2018-11-21T08:29:10.415Z,72.55
2018-11-21T08:31:38.994Z,70.47
2018-11-21T08:34:07.498Z,68.39
2018-11-21T08:36:35.993Z,68.37
2018-11-21T08:39:06.821Z,68.67
2018-11-21T08:41:35.288Z,68.41
2018-11-21T08:44:03.796Z,68.78
2018-11-21T08:46:32.351Z,69.22
2018-11-21T08:49:00.853Z,69.15
2018-11-21T08:51:29.359Z,69.46
2018-11-21T08:53:57.899Z,69.13
2018-11-21T08:56:26.394Z,69.31
2018-11-21T08:58:54.981Z,68.72
2018-11-21T09:01:23.490Z,68.80
2018-11-21T09:03:51.999Z,74.29
2018-11-21T09:06:20.491Z,70.98
2018-11-21T09:08:49.053Z,68.83
2018-11-21T09:11:17.555Z,67.60
2018-11-21T09:13:46.066Z,68.44
2018-11-21T09:16:14.623Z,68.89
2018-11-21T09:18:43.133Z,69.07
2018-11-21T09:21:15.579Z,68.79
2018-11-21T09:23:44.046Z,68.90
2018-11-21T09:26:12.571Z,68.40
2018-11-21T09:28:41.098Z,67.65
2018-11-21T09:31:09.575Z,67.16
2018-11-21T09:33:38.227Z,67.49
2018-11-21T09:36:09.847Z,67.48
2018-11-21T09:38:38.643Z,67.24
2018-11-21T09:41:07.112Z,69.42
2018-11-21T09:43:35.630Z,66.65
2018-11-21T09:46:04.107Z,65.12
2018-11-21T09:48:32.596Z,65.13
2018-11-21T09:51:01.101Z,65.87
2018-11-21T09:53:29.622Z,66.04
2018-11-21T09:55:58.159Z,65.69
2018-11-21T09:58:26.627Z,65.77
2018-11-21T10:01:31.594Z,65.77
2018-11-21T10:04:01.050Z,65.40
2018-11-21T10:06:34.811Z,64.80
2018-11-21T10:09:08.006Z,64.88
2018-11-21T10:11:37.478Z,64.98
2018-11-21T10:14:06.703Z,64.59
2018-11-21T10:16:36.743Z,65.53
2018-11-21T10:19:05.937Z,63.95
2018-11-21T10:21:35.598Z,63.96
2018-11-21T10:24:04.287Z,63.47
2018-11-21T10:26:32.771Z,62.46
2018-11-21T10:29:01.348Z,63.21
2018-11-21T10:31:30.083Z,62.61
2018-11-21T10:33:58.662Z,62.60
2018-11-21T10:36:27.425Z,62.03
2018-11-21T10:38:58.605Z,62.68
2018-11-21T10:41:29.301Z,63.11
2018-11-21T10:43:57.987Z,62.16
2018-11-21T10:46:26.580Z,60.94
2018-11-21T10:48:55.187Z,61.31
2018-11-21T10:51:23.882Z,61.69
2018-11-21T10:53:52.406Z,61.67
2018-11-21T10:56:21.196Z,61.04
2018-11-21T10:58:49.622Z,60.63
2018-11-21T11:01:43.044Z,60.74
2018-11-21T11:04:16.353Z,61.56
2018-11-21T11:07:02.915Z,61.63
2018-11-21T11:09:49.111Z,61.91
2018-11-21T11:12:39.434Z,61.31
2018-11-21T11:15:29.686Z,62.20
2018-11-21T11:18:27.478Z,62.21
2018-11-21T11:21:25.376Z,61.19
2018-11-21T11:24:10.230Z,61.04
2018-11-21T11:27:06.515Z,60.81
2018-11-21T11:29:59.940Z,61.23
2018-11-21T11:33:02.755Z,58.44
2018-11-21T11:35:52.916Z,58.58
2018-11-21T11:38:52.478Z,57.75
2018-11-21T11:41:42.885Z,57.38
2018-11-21T11:44:29.287Z,58.09
2018-11-21T11:47:15.705Z,57.63
2018-11-21T11:50:06.398Z,57.62
2018-11-21T11:52:54.339Z,57.43
2018-11-21T11:55:54.225Z,57.72
2018-11-21T11:58:41.763Z,57.89
2018-11-21T12:01:28.405Z,58.17
2018-11-21T12:04:14.801Z,57.96
2018-11-21T12:07:14.981Z,57.09
2018-11-21T12:10:01.833Z,57.09
2018-11-21T12:12:52.282Z,58.42
2018-11-21T12:15:38.753Z,58.61
2018-11-21T12:18:32.402Z,58.79
2018-11-21T12:21:22.699Z,58.72
2018-11-21T12:24:16.247Z,58.41
2018-11-21T12:27:05.145Z,57.09
2018-11-21T12:30:08.382Z,57.67
2018-11-21T12:33:02.226Z,57.72
2018-11-21T12:35:53.097Z,57.64
2018-11-21T12:38:46.736Z,57.74
2018-11-21T12:41:33.540Z,58.49
2018-11-21T12:44:31.362Z,57.42
2018-11-21T12:47:33.698Z,56.28
2018-11-21T12:50:30.289Z,57.26
2018-11-21T12:53:20.795Z,57.35
2018-11-21T12:56:08.595Z,57.71
2018-11-21T12:58:54.557Z,57.58
2018-11-21T13:01:40.550Z,57.46
2018-11-21T13:04:43.369Z,57.12
2018-11-21T13:07:21.067Z,57.41
2018-11-21T13:10:16.761Z,57.03
2018-11-21T13:13:17.544Z,57.41
2018-11-21T13:16:03.905Z,65.12
2018-11-21T13:18:50.011Z,59.59
2018-11-21T13:21:36.643Z,57.99
2018-11-21T13:24:30.500Z,57.87
2018-11-21T13:27:33.041Z,57.18
2018-11-21T13:30:32.914Z,57.25
2018-11-21T13:33:19.342Z,57.50
2018-11-21T13:36:05.771Z,58.42
2018-11-21T13:38:51.830Z,58.37
2018-11-21T13:41:52.915Z,58.00
2018-11-21T13:44:32.295Z,58.08
2018-11-21T13:47:22.696Z,58.55
2018-11-21T13:50:12.985Z,58.97
2018-11-21T13:52:57.360Z,59.67
2018-11-21T13:55:25.892Z,58.04
2018-11-21T13:57:54.381Z,58.35
2018-11-21T14:00:26.092Z,58.56
2018-11-21T14:02:54.546Z,59.01
2018-11-21T14:05:23.020Z,59.10
2018-11-21T14:07:51.619Z,59.66
2018-11-21T14:10:20.080Z,59.83
2018-11-21T14:12:48.593Z,60.08
2018-11-21T14:15:17.267Z,59.70
2018-11-21T14:17:45.760Z,59.95
2018-11-21T14:20:15.489Z,59.37
2018-11-21T14:22:44.051Z,59.91
2018-11-21T14:25:12.920Z,59.55
2018-11-21T14:27:41.438Z,61.75
2018-11-21T14:30:14.623Z,59.93
2018-11-21T14:32:43.432Z,59.19
2018-11-21T14:35:13.830Z,59.26
2018-11-21T14:37:43.280Z,59.65
2018-11-21T14:40:14.318Z,60.25
2018-11-21T14:42:43.005Z,59.91
2018-11-21T14:45:13.758Z,60.59
2018-11-21T14:47:42.754Z,61.05
2018-11-21T14:50:20.150Z,60.42
2018-11-21T14:52:48.749Z,61.12
2018-11-21T14:55:17.244Z,60.91
2018-11-21T14:57:45.876Z,60.57
2018-11-21T15:00:18.611Z,61.03
2018-11-21T15:02:51.107Z,61.81
2018-11-21T15:05:19.687Z,60.99
2018-11-21T15:07:50.627Z,60.51
2018-11-21T15:10:19.347Z,60.96
2018-11-21T15:12:47.967Z,60.99
2018-11-21T15:15:18.314Z,61.16
2018-11-21T15:17:46.826Z,61.91
2018-11-21T15:20:20.260Z,62.13
2018-11-21T15:22:48.830Z,62.65
2018-11-21T15:25:18.948Z,63.20
2018-11-21T15:27:47.757Z,63.49
2018-11-21T15:30:26.808Z,63.49
2018-11-21T15:32:55.569Z,62.96
2018-11-21T15:35:24.073Z,63.02
2018-11-21T15:37:52.670Z,64.24
2018-11-21T15:40:22.651Z,64.19
2018-11-21T15:42:51.285Z,62.81
2018-11-21T15:45:21.438Z,62.66
2018-11-21T15:47:55.318Z,63.14
2018-11-21T15:50:24.030Z,63.84
2018-11-21T15:52:54.335Z,64.15
2018-11-21T15:55:23.031Z,64.56
2018-11-21T15:57:51.577Z,64.43
2018-11-21T16:00:23.122Z,64.65
2018-11-21T16:02:53.414Z,64.25
2018-11-21T16:05:21.954Z,64.35
2018-11-21T16:07:50.709Z,64.80
2018-11-21T16:10:21.111Z,64.52
2018-11-21T16:12:52.985Z,64.65
2018-11-21T16:15:24.438Z,66.55
2018-11-21T16:17:53.020Z,64.79
2018-11-21T16:20:21.581Z,63.85
2018-11-21T16:22:50.139Z,63.90
2018-11-21T16:25:19.920Z,64.53
2018-11-21T16:27:48.672Z,64.38
2018-11-21T16:30:18.847Z,65.29
2018-11-21T16:32:47.676Z,65.41
2018-11-21T16:35:17.147Z,65.35
2018-11-21T16:37:45.876Z,64.58
2018-11-21T16:40:19.364Z,64.80
2018-11-21T16:42:48.422Z,64.80
2018-11-21T16:45:18.664Z,65.70
2018-11-21T16:47:47.210Z,64.85
2018-11-21T16:50:17.065Z,65.17
2018-11-21T16:52:45.820Z,65.84
2018-11-21T16:55:16.194Z,65.17
2018-11-21T16:57:49.337Z,63.92
2018-11-21T17:00:19.960Z,64.81
2018-11-21T17:02:51.353Z,64.84
2018-11-21T17:05:21.125Z,65.69
2018-11-21T17:07:49.960Z,65.47
2018-11-21T17:10:20.272Z,66.31
2018-11-21T17:12:49.432Z,66.53
2018-11-21T17:15:19.516Z,65.94
2018-11-21T17:17:48.243Z,65.51
2018-11-21T17:20:28.466Z,66.13
2018-11-21T17:22:57.825Z,66.02
2018-11-21T17:25:30.841Z,66.29
2018-11-21T17:27:59.360Z,69.57
2018-11-21T17:30:30.670Z,65.90
2018-11-21T17:32:59.167Z,65.90
2018-11-21T17:35:27.661Z,65.15
2018-11-21T17:38:01.893Z,65.84
2018-11-21T17:40:33.647Z,66.14
2018-11-21T17:43:05.390Z,67.64
2018-11-21T17:45:33.971Z,67.25
2018-11-21T17:48:02.751Z,66.50
2018-11-21T17:50:31.437Z,67.06
2018-11-21T17:53:01.470Z,67.12
2018-11-21T17:55:30.862Z,67.03
2018-11-21T17:57:59.497Z,66.72
2018-11-21T18:00:29.487Z,67.48
2018-11-21T18:02:58.025Z,71.73
2018-11-21T18:05:37.447Z,67.69
2018-11-21T18:08:05.936Z,65.48
2018-11-21T18:10:36.246Z,65.28
2018-11-21T18:13:04.788Z,67.39
2018-11-21T18:15:36.257Z,68.77
2018-11-21T18:18:04.877Z,68.53
2018-11-21T18:20:33.618Z,68.54
2018-11-21T18:23:02.352Z,68.02
2018-11-21T18:25:32.966Z,67.61
2018-11-21T18:28:01.981Z,67.52
2018-11-21T18:30:30.716Z,67.35
2018-11-21T18:32:59.449Z,67.63
2018-11-21T18:35:27.940Z,68.21
2018-11-21T18:37:57.585Z,69.78
2018-11-21T18:40:28.606Z,70.64
2018-11-21T18:42:57.147Z,67.08
2018-11-21T18:45:32.099Z,65.82
2018-11-21T18:48:00.725Z,67.39
2018-11-21T18:50:29.481Z,69.28
2018-11-21T18:52:59.155Z,69.56
2018-11-21T18:55:36.359Z,68.95
2018-11-21T18:59:11.096Z,68.08
2018-11-21T19:01:46.688Z,67.58
2018-11-21T19:04:10.615Z,66.73
2018-11-21T19:06:39.135Z,66.54
2018-11-21T19:09:14.640Z,66.46
2018-11-21T19:11:46.036Z,67.37
2018-11-21T19:14:14.638Z,67.37
2018-11-21T19:16:43.157Z,70.22
2018-11-21T19:19:11.769Z,66.42
2018-11-21T19:21:40.277Z,65.93
2018-11-21T19:24:08.775Z,67.70
2018-11-21T19:26:37.321Z,69.10
2018-11-21T19:29:06.441Z,69.12
2018-11-21T19:31:35.087Z,69.15
2018-11-21T19:34:07.487Z,68.46
2018-11-21T19:36:36.036Z,68.06
2018-11-21T19:39:10.010Z,67.61
2018-11-21T19:41:38.669Z,67.49
2018-11-21T19:44:07.290Z,67.33
2018-11-21T19:46:35.780Z,67.18
2018-11-21T19:49:04.555Z,67.17
2018-11-21T19:51:33.119Z,73.73
2018-11-21T19:54:01.870Z,69.39
2018-11-21T19:56:31.277Z,66.49
2018-11-21T19:58:59.955Z,66.70
2018-11-21T20:01:28.558Z,69.14
2018-11-21T20:03:57.080Z,69.14
2018-11-21T20:06:25.615Z,69.36
2018-11-21T20:08:54.206Z,69.05
2018-11-21T20:11:22.730Z,68.97
2018-11-21T20:13:51.342Z,68.39
2018-11-21T20:16:26.690Z,67.94
2018-11-21T20:18:57.979Z,67.67
2018-11-21T20:21:26.542Z,67.51
2018-11-21T20:23:55.120Z,66.83
2018-11-21T20:26:23.631Z,69.26
2018-11-21T20:28:52.188Z,68.26
2018-11-21T20:31:20.845Z,65.65
2018-11-21T20:33:49.373Z,65.37
2018-11-21T20:36:17.906Z,65.39
2018-11-21T20:38:46.454Z,66.35
2018-11-21T20:41:15.031Z,66.74
2018-11-21T20:43:43.642Z,66.68
2018-11-21T20:46:12.168Z,67.48
2018-11-21T20:48:40.792Z,67.26
2018-11-21T20:51:09.430Z,66.70
2018-11-21T20:53:38.000Z,66.46
2018-11-21T20:56:06.721Z,65.57
2018-11-21T20:58:35.243Z,65.57
2018-11-21T21:01:03.846Z,65.05
2018-11-21T21:03:36.387Z,68.83
2018-11-21T21:06:05.204Z,67.68
2018-11-21T21:08:37.213Z,65.18
2018-11-21T21:11:06.004Z,64.96
2018-11-21T21:13:34.662Z,65.33
2018-11-21T21:16:03.320Z,66.98
2018-11-21T21:18:31.850Z,66.94
2018-11-21T21:21:00.390Z,66.77
2018-11-21T21:23:28.870Z,66.53
2018-11-21T21:25:57.361Z,66.53
2018-11-21T21:28:25.981Z,66.08
2018-11-21T21:30:54.535Z,65.45
2018-11-21T21:33:23.104Z,65.05
2018-11-21T21:35:51.685Z,66.42
2018-11-21T21:38:22.625Z,65.66
2018-11-21T21:40:51.218Z,68.00
2018-11-21T21:43:19.965Z,65.23
2018-11-21T21:45:50.460Z,64.50
2018-11-21T21:48:20.015Z,64.16
2018-11-21T21:50:48.681Z,65.56
2018-11-21T21:53:17.495Z,66.16
2018-11-21T21:55:46.030Z,66.53
2018-11-21T21:58:14.554Z,66.20
2018-11-21T22:00:43.195Z,65.52
2018-11-21T22:03:11.853Z,64.98
2018-11-21T22:05:40.425Z,64.65
2018-11-21T22:08:08.995Z,64.76
2018-11-21T22:10:37.629Z,64.96
2018-11-21T22:13:06.285Z,65.19
2018-11-21T22:15:36.457Z,70.24
2018-11-21T22:18:06.775Z,67.04
2018-11-21T22:20:41.610Z,63.63
2018-11-21T22:23:10.349Z,63.70
2018-11-21T22:25:38.883Z,65.24
2018-11-21T22:28:07.615Z,65.70
2018-11-21T22:30:36.149Z,65.90
2018-11-21T22:33:04.911Z,66.03
2018-11-21T22:35:35.343Z,65.87
2018-11-21T22:38:04.080Z,65.61
2018-11-21T22:40:32.650Z,65.89
2018-11-21T22:43:02.795Z,65.24
2018-11-21T22:45:31.505Z,64.90
2018-11-21T22:48:00.292Z,64.80
2018-11-21T22:50:28.773Z,65.04
2018-11-21T22:52:57.300Z,65.92
2018-11-21T22:55:25.775Z,63.41
2018-11-21T22:57:54.513Z,62.90
2018-11-21T23:00:39.270Z,64.66
2018-11-21T23:03:07.789Z,66.18
2018-11-21T23:05:38.710Z,66.47
2018-11-21T23:08:04.945Z,66.04
2018-11-21T23:10:35.341Z,66.00
2018-11-21T23:13:03.839Z,66.00
2018-11-21T23:15:32.569Z,66.06
2018-11-21T23:18:01.104Z,65.82
2018-11-21T23:20:29.643Z,65.81
2018-11-21T23:26:42.659Z,66.06
2018-11-21T23:29:11.294Z,67.49
2018-11-21T23:31:39.919Z,65.56
2018-11-21T23:34:08.447Z,63.40
2018-11-21T23:36:37.012Z,64.42
2018-11-21T23:39:07.834Z,66.11
2018-11-21T23:41:36.517Z,66.63
2018-11-21T23:44:05.099Z,66.81
2018-11-21T23:46:33.607Z,66.46
2018-11-21T23:49:05.100Z,66.13
2018-11-21T23:51:33.639Z,65.49
2018-11-21T23:54:02.399Z,65.50
2018-11-21T23:56:30.908Z,65.84
2018-11-21T23:58:59.460Z,65.93
